createdAt,value
2023-05-11T00:00:39.267Z,94.49
2023-05-11T00:03:06.281Z,94.14
2023-05-11T00:05:32.791Z,93.82
2023-05-11T00:07:59.183Z,94.01
2023-05-11T00:10:25.818Z,93.05
2023-05-11T00:12:52.374Z,93.16
2023-05-11T00:15:19.040Z,92.52
2023-05-11T00:17:45.657Z,92.31
2023-05-11T00:20:12.233Z,92.24
2023-05-11T00:22:39.490Z,92.54
2023-05-11T00:25:06.701Z,92.39
2023-05-11T00:27:33.192Z,92.64
2023-05-11T00:29:59.612Z,92.10
2023-05-11T00:32:26.249Z,91.96
2023-05-11T00:34:52.708Z,92.13
2023-05-11T00:37:19.147Z,91.78
2023-05-11T00:39:45.899Z,92.11
2023-05-11T00:42:12.304Z,91.49
2023-05-11T00:44:38.714Z,91.39
2023-05-11T00:47:05.496Z,91.36
2023-05-11T00:49:32.257Z,91.19
2023-05-11T00:52:02.884Z,91.56
2023-05-11T00:54:30.203Z,91.31
2023-05-11T00:56:56.596Z,91.70
2023-05-11T00:59:23.806Z,91.48
2023-05-11T01:01:50.510Z,91.24
2023-05-11T01:04:17.744Z,90.96
2023-05-11T01:07:02.987Z,91.40
2023-05-11T01:09:43.769Z,90.94
2023-05-11T01:12:22.028Z,91.20
2023-05-11T01:15:03.523Z,90.91
2023-05-11T01:17:46.146Z,91.34
2023-05-11T01:20:18.617Z,91.34
2023-05-11T01:23:14.290Z,91.31
2023-05-11T01:26:04.725Z,91.66
2023-05-11T01:28:31.168Z,91.92
2023-05-11T01:31:10.970Z,92.02
2023-05-11T01:33:44.588Z,92.00
2023-05-11T01:36:13.289Z,92.40
2023-05-11T01:38:44.228Z,91.87
2023-05-11T01:41:17.609Z,91.69
2023-05-11T01:43:54.601Z,92.18
2023-05-11T01:46:26.246Z,91.94
2023-05-11T01:48:56.140Z,91.86
2023-05-11T01:51:25.894Z,92.43
2023-05-11T01:53:53.775Z,92.34
2023-05-11T01:56:22.738Z,92.77
2023-05-11T01:58:50.842Z,92.75
2023-05-11T02:01:19.154Z,92.41
2023-05-11T02:03:47.532Z,92.40
2023-05-11T02:06:18.070Z,92.59
2023-05-11T02:08:48.258Z,92.67
2023-05-11T02:11:15.828Z,92.61
2023-05-11T02:13:45.050Z,92.47
2023-05-11T02:16:12.893Z,92.50
2023-05-11T02:18:41.333Z,92.42
2023-05-11T02:21:09.727Z,92.62
2023-05-11T02:23:37.522Z,92.46
2023-05-11T02:26:06.633Z,92.42
2023-05-11T02:28:33.090Z,92.58
2023-05-11T02:31:05.250Z,92.76
2023-05-11T02:33:36.502Z,92.66
2023-05-11T02:36:04.508Z,92.06
2023-05-11T02:38:34.847Z,92.20
2023-05-11T02:41:11.881Z,92.67
2023-05-11T02:43:46.799Z,92.86
2023-05-11T02:46:17.477Z,92.71
2023-05-11T02:48:49.454Z,93.05
2023-05-11T02:51:19.070Z,92.92
2023-05-11T02:53:50.016Z,92.67
2023-05-11T02:56:17.034Z,92.70
2023-05-11T02:58:44.020Z,93.34
2023-05-11T03:01:20.728Z,92.88
2023-05-11T03:03:47.647Z,93.07
2023-05-11T03:06:14.864Z,93.35
2023-05-11T03:08:42.358Z,93.46
2023-05-11T03:11:11.070Z,93.21
2023-05-11T03:13:38.998Z,93.73
2023-05-11T03:16:07.683Z,93.55
2023-05-11T03:18:36.327Z,93.74
2023-05-11T03:21:03.202Z,93.88
2023-05-11T03:23:30.602Z,94.06
2023-05-11T03:25:58.852Z,94.28
2023-05-11T03:28:26.964Z,94.18
2023-05-11T03:31:03.779Z,94.52
2023-05-11T03:33:32.209Z,94.26
2023-05-11T03:36:00.812Z,94.42
2023-05-11T03:38:30.769Z,95.17
2023-05-11T03:40:59.808Z,94.68
2023-05-11T03:43:30.355Z,95.18
2023-05-11T03:45:58.028Z,95.08
2023-05-11T03:48:26.692Z,95.34
2023-05-11T03:50:53.827Z,94.88
2023-05-11T03:53:20.860Z,95.16
2023-05-11T03:55:49.997Z,95.74
2023-05-11T03:58:16.837Z,95.49
2023-05-11T04:00:43.373Z,95.79
2023-05-11T04:03:10.010Z,96.03
2023-05-11T04:05:38.040Z,95.75
2023-05-11T04:08:07.649Z,96.50
2023-05-11T04:10:34.129Z,96.08
2023-05-11T04:13:00.590Z,96.28
2023-05-11T04:15:27.284Z,96.54
2023-05-11T04:17:53.832Z,96.27
2023-05-11T04:20:20.519Z,96.61
2023-05-11T04:22:47.178Z,97.02
2023-05-11T04:25:13.969Z,97.08
2023-05-11T04:27:40.806Z,97.31
2023-05-11T04:30:09.054Z,97.31
2023-05-11T04:32:35.686Z,97.07
2023-05-11T04:35:02.207Z,97.02
2023-05-11T04:37:33.064Z,97.40
2023-05-11T04:40:01.291Z,96.89
2023-05-11T04:42:31.128Z,97.37
2023-05-11T04:44:58.814Z,97.69
2023-05-11T04:47:25.569Z,97.68
2023-05-11T04:49:52.221Z,97.82
2023-05-11T04:52:18.679Z,97.71
2023-05-11T04:54:48.388Z,97.53
2023-05-11T04:57:15.993Z,97.64
2023-05-11T04:59:42.520Z,97.54
2023-05-11T05:02:09.027Z,97.36
2023-05-11T05:04:36.487Z,97.54
2023-05-11T05:07:03.141Z,97.53
2023-05-11T05:09:30.878Z,97.50
2023-05-11T05:11:57.336Z,97.62
2023-05-11T05:14:23.781Z,97.50
2023-05-11T05:16:50.297Z,97.46
2023-05-11T05:19:17.004Z,97.16
2023-05-11T05:21:44.373Z,97.67
2023-05-11T05:24:12.160Z,97.43
2023-05-11T05:26:38.966Z,97.18
2023-05-11T05:29:06.862Z,97.60
2023-05-11T05:31:33.462Z,97.30
2023-05-11T05:34:00.259Z,97.30
2023-05-11T05:36:27.165Z,97.49
2023-05-11T05:38:53.751Z,96.98
2023-05-11T05:41:21.486Z,97.42
2023-05-11T05:43:48.666Z,97.37
2023-05-11T05:46:16.426Z,97.73
2023-05-11T05:48:43.351Z,97.19
2023-05-11T05:51:09.917Z,97.64
2023-05-11T05:53:37.630Z,97.46
2023-05-11T05:56:04.294Z,96.98
2023-05-11T05:58:30.972Z,96.69
2023-05-11T06:00:57.520Z,96.88
2023-05-11T06:03:24.898Z,96.82
2023-05-11T06:05:52.909Z,97.36
2023-05-11T06:08:19.356Z,96.91
2023-05-11T06:10:46.384Z,97.05
2023-05-11T06:13:13.621Z,97.27
2023-05-11T06:15:43.683Z,97.44
2023-05-11T06:18:19.912Z,97.49
2023-05-11T06:20:47.040Z,96.98
2023-05-11T06:23:15.057Z,97.31
2023-05-11T06:25:43.229Z,97.03
2023-05-11T06:28:09.810Z,96.92
2023-05-11T06:30:37.509Z,96.68
2023-05-11T06:33:06.671Z,97.06
2023-05-11T06:35:36.909Z,97.14
2023-05-11T06:38:05.460Z,96.80
2023-05-11T06:40:32.741Z,96.86
2023-05-11T06:42:59.677Z,96.60
2023-05-11T06:45:41.792Z,96.99
2023-05-11T06:48:08.786Z,97.28
2023-05-11T06:50:35.198Z,97.08
2023-05-11T06:53:01.626Z,96.41
2023-05-11T06:55:29.164Z,96.71
2023-05-11T06:57:55.713Z,96.45
2023-05-11T07:00:22.382Z,96.99
2023-05-11T07:02:48.856Z,96.40
2023-05-11T07:05:15.276Z,96.35
2023-05-11T07:07:42.002Z,96.25
2023-05-11T07:10:09.026Z,96.30
2023-05-11T07:12:35.509Z,96.60
2023-05-11T07:15:01.956Z,96.51
2023-05-11T07:17:28.641Z,95.69
2023-05-11T07:19:55.513Z,95.92
2023-05-11T07:22:21.962Z,95.08
2023-05-11T07:24:48.367Z,95.16
2023-05-11T07:27:15.004Z,95.12
2023-05-11T07:29:41.422Z,94.66
2023-05-11T07:32:07.838Z,95.37
2023-05-11T07:34:34.293Z,94.56
2023-05-11T07:37:01.717Z,94.65
2023-05-11T07:39:28.240Z,94.21
2023-05-11T07:41:54.670Z,94.00
2023-05-11T07:44:21.355Z,94.04
2023-05-11T07:46:48.180Z,93.51
2023-05-11T07:49:20.553Z,93.45
2023-05-11T07:51:52.656Z,93.04
2023-05-11T07:54:21.004Z,93.17
2023-05-11T07:56:48.243Z,93.23
2023-05-11T07:59:14.707Z,93.55
2023-05-11T08:01:41.293Z,93.01
2023-05-11T08:04:07.892Z,93.44
2023-05-11T08:06:34.608Z,93.47
2023-05-11T08:09:01.090Z,93.30
2023-05-11T08:11:27.587Z,93.12
2023-05-11T08:13:54.016Z,92.95
2023-05-11T08:16:20.519Z,92.69
2023-05-11T08:18:47.001Z,92.74
2023-05-11T08:21:14.355Z,91.91
2023-05-11T08:23:41.314Z,91.83
2023-05-11T08:26:08.437Z,91.79
2023-05-11T08:28:34.897Z,91.50
2023-05-11T08:31:01.442Z,91.47
2023-05-11T08:35:57.256Z,90.92
2023-05-11T08:38:23.831Z,90.37
2023-05-11T08:40:53.302Z,90.78
2023-05-11T08:43:19.772Z,90.24
2023-05-11T08:45:48.442Z,90.17
2023-05-11T08:48:17.694Z,89.52
2023-05-11T08:50:47.842Z,90.41
2023-05-11T08:53:14.610Z,89.60
2023-05-11T08:55:42.940Z,89.66
2023-05-11T08:58:10.596Z,89.03
2023-05-11T09:00:37.435Z,88.46
2023-05-11T09:03:04.811Z,88.43
2023-05-11T09:05:32.487Z,88.58
2023-05-11T09:08:03.187Z,87.73
2023-05-11T09:10:29.700Z,87.90
2023-05-11T09:12:56.288Z,87.31
2023-05-11T09:15:23.070Z,87.16
2023-05-11T09:17:49.739Z,86.97
2023-05-11T09:20:16.464Z,86.86
2023-05-11T09:22:45.530Z,87.18
2023-05-11T09:25:17.499Z,87.11
2023-05-11T09:27:45.502Z,87.09
2023-05-11T09:30:13.410Z,86.66
2023-05-11T09:33:00.167Z,85.94
2023-05-11T09:35:31.551Z,85.95
2023-05-11T09:38:24.923Z,85.70
2023-05-11T09:40:56.333Z,85.22
2023-05-11T09:43:28.372Z,85.42
2023-05-11T09:45:57.360Z,85.35
2023-05-11T09:48:26.361Z,85.67
2023-05-11T09:51:00.152Z,84.78
2023-05-11T09:53:45.324Z,84.08
2023-05-11T09:56:13.662Z,83.68
2023-05-11T09:58:47.742Z,83.54
2023-05-11T10:01:15.442Z,83.48
2023-05-11T10:04:02.621Z,83.19
2023-05-11T10:06:55.392Z,82.69
2023-05-11T10:09:27.161Z,82.44
2023-05-11T10:11:55.325Z,82.18
2023-05-11T10:14:22.439Z,82.24
2023-05-11T10:16:49.142Z,82.19
2023-05-11T10:19:16.056Z,81.40
2023-05-11T10:21:42.804Z,80.33
2023-05-11T10:24:11.055Z,80.19
2023-05-11T10:26:38.405Z,79.47
2023-05-11T10:29:05.216Z,80.46
2023-05-11T10:31:33.200Z,80.58
2023-05-11T10:34:01.515Z,79.94
2023-05-11T10:36:28.459Z,79.86
2023-05-11T10:38:54.890Z,79.81
2023-05-11T10:41:41.450Z,79.76
2023-05-11T10:44:32.706Z,80.33
2023-05-11T10:47:53.396Z,80.71
2023-05-11T10:50:57.071Z,81.05
2023-05-11T10:53:54.518Z,81.66
2023-05-11T10:56:54.728Z,81.95
2023-05-11T10:59:38.238Z,82.49
2023-05-11T11:02:06.133Z,82.78
2023-05-11T11:04:51.802Z,83.42
2023-05-11T11:07:19.713Z,83.94
2023-05-11T11:10:09.048Z,83.89
2023-05-11T11:12:35.536Z,83.89
2023-05-11T11:15:07.972Z,84.32
2023-05-11T11:17:36.202Z,83.99
2023-05-11T11:20:07.016Z,83.76
2023-05-11T11:22:38.208Z,83.84
2023-05-11T11:25:09.522Z,82.91
2023-05-11T11:27:45.158Z,81.83
2023-05-11T11:30:30.683Z,82.47
2023-05-11T11:33:06.966Z,83.03
2023-05-11T11:35:39.618Z,83.04
2023-05-11T11:38:16.686Z,82.39
2023-05-11T11:40:51.386Z,82.53
2023-05-11T11:43:24.553Z,82.99
2023-05-11T11:45:57.689Z,82.28
2023-05-11T11:48:35.238Z,82.35
2023-05-11T11:51:04.426Z,82.06
2023-05-11T11:53:40.932Z,81.83
2023-05-11T11:56:16.259Z,81.68
2023-05-11T11:58:43.174Z,82.59
2023-05-11T12:01:12.943Z,83.03
2023-05-11T12:03:41.848Z,82.87
2023-05-11T12:06:09.901Z,82.89
2023-05-11T12:08:38.279Z,83.56
2023-05-11T12:11:05.918Z,83.37
2023-05-11T12:13:33.407Z,82.51
2023-05-11T12:16:18.627Z,82.48
2023-05-11T12:19:01.551Z,82.10
2023-05-11T12:21:33.880Z,82.81
2023-05-11T12:24:05.323Z,83.32
2023-05-11T12:26:33.162Z,83.31
2023-05-11T12:29:14.439Z,82.57
2023-05-11T12:31:42.929Z,83.30
2023-05-11T12:34:16.776Z,83.46
2023-05-11T12:36:48.076Z,83.53
2023-05-11T12:39:22.249Z,84.05
2023-05-11T12:41:49.997Z,83.60
2023-05-11T12:44:17.806Z,83.48
2023-05-11T12:46:48.153Z,84.12
2023-05-11T12:49:24.887Z,84.20
2023-05-11T12:52:07.926Z,83.80
2023-05-11T12:54:53.823Z,84.42
2023-05-11T12:57:25.531Z,84.83
2023-05-11T13:00:13.180Z,85.18
2023-05-11T13:02:54.857Z,85.43
2023-05-11T13:05:25.747Z,85.39
2023-05-11T13:08:05.481Z,85.59
2023-05-11T13:10:32.212Z,85.04
2023-05-11T13:12:59.513Z,85.15
2023-05-11T13:15:28.412Z,85.28
2023-05-11T13:18:00.159Z,85.31
2023-05-11T13:20:29.697Z,85.46
2023-05-11T13:23:10.424Z,86.28
2023-05-11T13:25:45.781Z,86.40
2023-05-11T13:28:15.076Z,86.34
2023-05-11T13:30:42.115Z,86.64
2023-05-11T13:33:08.870Z,86.70
2023-05-11T13:35:42.417Z,86.72
2023-05-11T13:38:09.906Z,86.54
2023-05-11T13:40:36.921Z,86.84
2023-05-11T13:43:03.731Z,86.76
2023-05-11T13:45:30.520Z,86.81
2023-05-11T13:47:57.089Z,87.03
2023-05-11T13:50:26.029Z,86.53
2023-05-11T13:52:53.206Z,86.00
2023-05-11T13:55:20.253Z,86.21
2023-05-11T13:57:46.904Z,85.53
2023-05-11T14:00:13.967Z,85.46
2023-05-11T14:02:40.515Z,85.65
2023-05-11T14:05:07.457Z,85.01
2023-05-11T14:07:46.394Z,85.50
2023-05-11T14:10:14.092Z,84.99
2023-05-11T14:12:41.169Z,85.02
2023-05-11T14:15:08.437Z,85.36
2023-05-11T14:17:35.002Z,85.69
2023-05-11T14:20:01.622Z,85.72
2023-05-11T14:22:30.806Z,85.84
2023-05-11T14:24:57.438Z,85.56
2023-05-11T14:27:24.099Z,85.76
2023-05-11T14:29:52.019Z,85.66
2023-05-11T14:32:21.622Z,86.32
2023-05-11T14:34:48.673Z,86.16
2023-05-11T14:37:15.339Z,86.05
2023-05-11T14:39:42.044Z,86.28
2023-05-11T14:42:08.852Z,86.81
2023-05-11T14:44:35.575Z,86.82
2023-05-11T14:47:02.618Z,87.22
2023-05-11T14:49:29.185Z,87.26
2023-05-11T14:51:56.612Z,87.52
2023-05-11T14:54:23.253Z,87.92
2023-05-11T14:56:53.853Z,87.78
2023-05-11T14:59:21.477Z,87.79
2023-05-11T15:01:48.080Z,88.60
2023-05-11T15:04:15.926Z,88.59
2023-05-11T15:06:43.515Z,88.38
2023-05-11T15:09:10.063Z,88.47
2023-05-11T15:11:39.223Z,88.56
2023-05-11T15:14:09.770Z,89.08
2023-05-11T15:16:37.101Z,88.93
2023-05-11T15:19:05.336Z,88.84
2023-05-11T15:21:32.528Z,88.32
2023-05-11T15:23:58.975Z,88.68
2023-05-11T15:26:26.181Z,89.34
2023-05-11T15:28:52.723Z,89.22
2023-05-11T15:31:19.195Z,88.92
2023-05-11T15:33:45.881Z,88.89
2023-05-11T15:36:13.892Z,88.64
2023-05-11T15:38:41.021Z,88.16
2023-05-11T15:41:07.884Z,88.31
2023-05-11T15:43:34.935Z,87.84
2023-05-11T15:46:03.688Z,87.18
2023-05-11T15:48:30.409Z,87.59
2023-05-11T15:50:59.966Z,87.70
2023-05-11T15:53:26.860Z,87.99
2023-05-11T15:55:55.376Z,88.29
2023-05-11T15:58:22.509Z,88.35
2023-05-11T16:00:49.095Z,88.98
2023-05-11T16:03:15.852Z,89.24
2023-05-11T16:05:42.423Z,89.08
2023-05-11T16:08:08.873Z,89.33
2023-05-11T16:10:35.326Z,89.74
2023-05-11T16:13:01.783Z,89.58
2023-05-11T16:15:29.364Z,89.71
2023-05-11T16:17:55.887Z,89.68
2023-05-11T16:20:22.406Z,89.50
2023-05-11T16:22:48.822Z,89.52
2023-05-11T16:25:15.652Z,89.85
2023-05-11T16:27:42.109Z,90.13
2023-05-11T16:30:22.174Z,89.52
2023-05-11T16:32:51.525Z,89.37
2023-05-11T16:35:18.361Z,89.13
2023-05-11T16:37:44.927Z,88.59
2023-05-11T16:40:11.585Z,88.22
2023-05-11T16:42:38.090Z,88.50
2023-05-11T16:45:05.028Z,88.07
2023-05-11T16:47:31.458Z,87.96
2023-05-11T16:49:58.058Z,87.60
2023-05-11T16:52:24.730Z,87.29
2023-05-11T16:54:51.203Z,87.45
2023-05-11T16:57:17.694Z,87.79
2023-05-11T16:59:44.304Z,87.81
2023-05-11T17:02:10.737Z,88.28
2023-05-11T17:04:37.304Z,88.15
2023-05-11T17:07:03.924Z,87.80
2023-05-11T17:09:30.992Z,88.04
2023-05-11T17:11:57.507Z,87.86
2023-05-11T17:14:24.049Z,88.18
2023-05-11T17:16:50.501Z,87.31
2023-05-11T17:19:17.037Z,87.26
2023-05-11T17:21:43.546Z,87.47
2023-05-11T17:24:10.027Z,87.75
2023-05-11T17:26:47.269Z,88.05
2023-05-11T17:29:16.428Z,88.58
2023-05-11T17:31:43.288Z,88.87
2023-05-11T17:34:10.180Z,88.86
2023-05-11T17:36:36.812Z,89.08
2023-05-11T17:39:03.435Z,89.34
2023-05-11T17:41:29.859Z,89.51
2023-05-11T17:43:56.301Z,89.16
2023-05-11T17:46:22.818Z,90.03
2023-05-11T17:48:49.321Z,90.22
2023-05-11T17:51:16.142Z,89.78
2023-05-11T17:53:42.769Z,90.00
2023-05-11T17:56:11.798Z,90.08
2023-05-11T17:58:38.383Z,89.94
2023-05-11T18:01:09.085Z,89.80
2023-05-11T18:03:35.836Z,89.11
2023-05-11T18:06:02.597Z,89.78
2023-05-11T18:08:29.041Z,89.58
2023-05-11T18:10:55.608Z,89.86
2023-05-11T18:13:22.959Z,89.65
2023-05-11T18:15:49.629Z,90.11
2023-05-11T18:18:16.430Z,90.08
2023-05-11T18:20:46.509Z,90.38
2023-05-11T18:23:14.130Z,90.14
2023-05-11T18:25:41.399Z,90.23
2023-05-11T18:28:07.937Z,90.66
2023-05-11T18:30:34.715Z,90.83
2023-05-11T18:33:01.813Z,90.88
2023-05-11T18:35:29.915Z,91.01
2023-05-11T18:37:56.378Z,90.67
2023-05-11T18:40:23.493Z,91.07
2023-05-11T18:42:52.718Z,91.59
2023-05-11T18:45:19.661Z,91.47
2023-05-11T18:47:46.530Z,91.82
2023-05-11T18:50:13.303Z,92.27
2023-05-11T18:52:39.718Z,92.10
2023-05-11T18:55:06.781Z,92.21
2023-05-11T18:57:34.374Z,92.34
2023-05-11T19:00:01.052Z,92.09
2023-05-11T19:02:27.776Z,92.44
2023-05-11T19:04:54.456Z,92.87
2023-05-11T19:07:20.860Z,92.82
2023-05-11T19:09:47.444Z,93.19
2023-05-11T19:12:13.872Z,93.15
2023-05-11T19:14:40.499Z,93.57
2023-05-11T19:17:07.052Z,93.85
2023-05-11T19:19:34.291Z,93.76
2023-05-11T19:22:01.101Z,93.38
2023-05-11T19:24:28.369Z,93.42
2023-05-11T19:27:06.679Z,93.73
2023-05-11T19:29:35.466Z,93.01
2023-05-11T19:32:02.477Z,93.67
2023-05-11T19:34:28.977Z,93.89
2023-05-11T19:36:55.402Z,93.88
2023-05-11T19:39:21.865Z,94.06
2023-05-11T19:41:48.272Z,94.36
2023-05-11T19:44:14.690Z,94.24
2023-05-11T19:46:46.312Z,94.60
2023-05-11T19:49:14.882Z,94.13
2023-05-11T19:51:41.330Z,94.63
2023-05-11T19:54:07.871Z,94.49
2023-05-11T19:56:34.269Z,94.46
2023-05-11T19:59:02.512Z,94.98
2023-05-11T20:01:29.012Z,94.83
2023-05-11T20:03:56.275Z,94.79
2023-05-11T20:06:23.325Z,94.52
2023-05-11T20:08:51.508Z,95.08
2023-05-11T20:11:18.279Z,94.65
2023-05-11T20:13:45.127Z,94.81
2023-05-11T20:16:11.530Z,94.52
2023-05-11T20:18:38.109Z,94.70
2023-05-11T20:21:04.552Z,94.36
2023-05-11T20:23:31.079Z,94.68
2023-05-11T20:25:57.580Z,94.62
2023-05-11T20:28:27.189Z,95.22
2023-05-11T20:30:55.047Z,94.78
2023-05-11T20:35:53.173Z,95.06
2023-05-11T20:38:20.082Z,95.18
2023-05-11T20:40:46.566Z,95.35
2023-05-11T20:43:14.589Z,94.85
2023-05-11T20:45:41.757Z,94.96
2023-05-11T20:48:08.408Z,94.84
2023-05-11T20:50:34.997Z,94.72
2023-05-11T20:53:01.485Z,95.08
2023-05-11T20:55:28.039Z,95.12
2023-05-11T20:57:54.454Z,94.92
2023-05-11T21:00:21.332Z,94.87
2023-05-11T21:02:48.149Z,94.52
2023-05-11T21:05:14.815Z,94.65
2023-05-11T21:07:41.268Z,94.34
2023-05-11T21:10:08.120Z,94.33
2023-05-11T21:12:34.610Z,94.69
2023-05-11T21:15:01.130Z,94.12
2023-05-11T21:17:27.730Z,94.21
2023-05-11T21:19:54.232Z,94.21
2023-05-11T21:22:21.976Z,94.44
2023-05-11T21:24:48.424Z,94.47
2023-05-11T21:27:15.008Z,94.59
2023-05-11T21:29:41.915Z,94.63
2023-05-11T21:32:08.394Z,94.44
2023-05-11T21:34:34.991Z,94.10
2023-05-11T21:37:03.230Z,94.39
2023-05-11T21:39:29.670Z,94.19
2023-05-11T21:41:56.736Z,94.78
2023-05-11T21:44:23.200Z,94.27
2023-05-11T21:46:50.448Z,94.79
2023-05-11T21:49:17.229Z,94.37
2023-05-11T21:51:43.748Z,94.15
2023-05-11T21:54:10.284Z,94.45
2023-05-11T21:56:36.928Z,94.59
2023-05-11T21:59:03.552Z,95.13
2023-05-11T22:01:29.972Z,94.64
2023-05-11T22:03:56.643Z,94.60
2023-05-11T22:06:23.171Z,94.65
2023-05-11T22:08:49.590Z,94.88
2023-05-11T22:11:16.036Z,94.95
2023-05-11T22:13:42.812Z,94.93
2023-05-11T22:16:09.277Z,95.29
2023-05-11T22:18:35.815Z,94.85
2023-05-11T22:21:03.526Z,94.99
2023-05-11T22:23:31.100Z,95.23
2023-05-11T22:25:57.690Z,95.16
2023-05-11T22:28:24.118Z,95.47
2023-05-11T22:30:50.551Z,95.43
2023-05-11T22:33:17.039Z,95.63
2023-05-11T22:35:43.602Z,95.23
2023-05-11T22:38:10.387Z,95.56
2023-05-11T22:40:37.287Z,95.53
2023-05-11T22:43:03.793Z,95.35
2023-05-11T22:45:30.350Z,95.48
2023-05-11T22:47:56.901Z,95.26
2023-05-11T22:50:23.446Z,95.16
2023-05-11T22:52:49.978Z,95.16
2023-05-11T22:55:16.434Z,95.07
2023-05-11T22:57:43.908Z,95.46
2023-05-11T23:00:10.963Z,94.92
2023-05-11T23:02:37.971Z,95.37
2023-05-11T23:05:05.008Z,94.86
2023-05-11T23:07:31.644Z,95.07
2023-05-11T23:09:58.077Z,95.28
2023-05-11T23:12:24.710Z,95.46
2023-05-11T23:14:51.279Z,95.52
2023-05-11T23:17:17.893Z,95.56
2023-05-11T23:19:44.338Z,95.97
2023-05-11T23:22:10.979Z,95.63
2023-05-11T23:24:37.444Z,95.82
2023-05-11T23:27:04.235Z,96.08
2023-05-11T23:29:30.719Z,95.78
2023-05-11T23:31:57.170Z,95.91
2023-05-11T23:34:23.624Z,96.07
2023-05-11T23:36:50.125Z,95.77
2023-05-11T23:39:16.526Z,95.93
2023-05-11T23:41:42.951Z,95.77
2023-05-11T23:44:09.818Z,95.36
2023-05-11T23:46:36.381Z,95.56
2023-05-11T23:49:03.441Z,95.75
2023-05-11T23:51:30.042Z,95.77
2023-05-11T23:53:56.527Z,95.68
2023-05-11T23:56:22.968Z,95.61
2023-05-11T23:58:50.429Z,95.88
